Time;durP1;ratioP1;P1;durP2;ratioP2;P2;SDS_P1;SDS_P2;PMS_P1;PMS_P2;Temp;Humidity;BMP_temperature;BMP_pressure;BME280_temperature;BME280_humidity;BME280_pressure;Samples;Min_cycle;Max_cycle;Signal;HPM_P1;HPM_P2
2023/02/14 00:01:53;;;;;;;8.17;4.43;;;5.50;99.90;;;5.27;70.62;101729.38;5067860;28;20229;-65
2023/02/14 00:04:21;;;;;;;7.87;4.50;;;5.40;99.90;;;5.25;70.35;101726.75;5065318;28;20229;-65
2023/02/14 00:06:50;;;;;;;7.67;4.23;;;5.50;99.90;;;5.22;70.39;101723.22;5067216;28;20201;-65
2023/02/14 00:09:20;;;;;;;9.27;4.37;;;5.40;99.90;;;5.22;70.57;101726.63;5069853;28;20220;-65
2023/02/14 00:11:50;;;;;;;5.83;3.67;;;5.40;99.90;;;5.21;70.54;101736.81;5067560;28;20217;-64
2023/02/14 00:17:04;;;;;;;9.23;4.30;;;5.40;99.90;;;5.17;70.83;101743.50;5065039;28;20205;-65
2023/02/14 00:19:34;;;;;;;8.70;4.47;;;5.40;99.90;;;5.18;71.00;101750.34;5063572;28;20202;-65
2023/02/14 00:22:03;;;;;;;5.90;4.30;;;5.40;99.90;;;5.18;71.33;101752.03;5058280;28;20230;-64
2023/02/14 00:24:32;;;;;;;10.00;4.03;;;5.40;99.90;;;5.20;70.84;101758.06;5061615;28;20218;-66
2023/02/14 00:27:02;;;;;;;8.57;4.63;;;5.40;99.90;;;5.17;71.31;101758.81;5062279;28;20205;-64
2023/02/14 00:29:32;;;;;;;8.60;4.47;;;5.30;99.90;;;5.13;71.01;101762.06;5062134;28;20248;-64
2023/02/14 00:32:01;;;;;;;6.40;4.10;;;5.30;99.90;;;5.12;71.36;101762.91;5061082;28;20305;-65
2023/02/14 00:34:29;;;;;;;7.90;4.50;;;5.30;99.90;;;5.10;71.01;101761.94;5062889;28;20269;-66
2023/02/14 00:36:59;;;;;;;7.03;4.10;;;5.30;99.90;;;5.08;71.27;101761.91;5074448;28;20251;-66
2023/02/14 00:39:27;;;;;;;7.70;4.27;;;5.30;99.90;;;5.06;71.46;101755.00;5075216;28;20268;-64
2023/02/14 00:41:56;;;;;;;5.23;4.10;;;5.30;99.90;;;5.05;71.39;101759.22;5073672;28;20243;-65
2023/02/14 00:44:25;;;;;;;10.70;4.30;;;5.30;99.90;;;5.06;71.51;101760.09;5075880;28;20178;-66
2023/02/14 00:46:54;;;;;;;7.37;4.70;;;5.30;99.90;;;5.07;72.08;101772.06;5073645;28;20178;-64
2023/02/14 00:49:22;;;;;;;6.57;4.10;;;5.30;99.90;;;5.05;71.70;101758.38;5071577;28;20225;-65
2023/02/14 00:51:51;;;;;;;9.77;4.83;;;5.30;99.90;;;5.08;72.17;101763.56;5075552;28;20188;-65
2023/02/14 00:54:19;;;;;;;8.17;4.93;;;5.20;99.90;;;5.08;71.74;101769.56;5076133;28;20204;-66
2023/02/14 00:56:48;;;;;;;8.03;4.30;;;5.20;99.90;;;5.07;72.01;101766.94;5075942;28;20202;-65
2023/02/14 00:59:16;;;;;;;8.73;4.20;;;5.20;99.90;;;5.04;71.56;101762.59;5078725;28;20185;-65
2023/02/14 01:01:46;;;;;;;9.43;4.60;;;5.20;99.90;;;5.03;71.76;101767.63;5071915;28;20217;-66
2023/02/14 01:04:15;;;;;;;6.93;4.83;;;5.20;99.90;;;5.04;71.90;101771.94;5074924;28;20193;-66
2023/02/14 01:06:44;;;;;;;7.40;4.90;;;5.20;99.90;;;5.03;72.34;101760.84;5075412;28;20217;-66
2023/02/14 01:09:12;;;;;;;9.93;4.70;;;5.20;99.90;;;5.02;71.67;101756.56;5076492;28;20208;-65
2023/02/14 01:11:41;;;;;;;8.93;5.10;;;5.20;99.90;;;5.02;72.40;101760.78;5076724;28;20189;-65
2023/02/14 01:14:09;;;;;;;7.00;4.77;;;5.20;99.90;;;5.00;72.01;101757.28;5074120;28;20206;-65
2023/02/14 01:16:39;;;;;;;8.37;4.87;;;5.20;99.90;;;4.98;72.50;101764.06;5076670;28;20198;-65
2023/02/14 01:19:09;;;;;;;7.67;4.93;;;5.20;99.90;;;4.94;72.22;101752.84;5070472;28;20213;-65
2023/02/14 01:21:37;;;;;;;7.40;5.30;;;5.10;99.90;;;4.90;72.41;101758.66;5071221;28;20220;-65
2023/02/14 01:24:08;;;;;;;8.07;5.03;;;5.10;99.90;;;4.88;73.03;101755.16;5074895;28;20186;-65
2023/02/14 01:26:36;;;;;;;6.83;4.93;;;5.10;99.90;;;4.85;72.68;101752.47;5076112;28;20202;-66
2023/02/14 01:29:06;;;;;;;11.07;5.93;;;5.10;99.90;;;4.80;72.93;101754.84;5073088;28;20224;-64
2023/02/14 01:31:36;;;;;;;9.10;5.43;;;5.00;99.90;;;4.78;72.92;101761.56;5071539;28;20209;-63
2023/02/14 01:34:05;;;;;;;8.43;5.33;;;5.00;99.90;;;4.77;73.60;101764.94;5069988;28;20201;-65
2023/02/14 01:36:38;;;;;;;9.87;4.83;;;5.00;99.90;;;4.77;73.29;101758.97;5076241;28;20194;-66
2023/02/14 01:39:12;;;;;;;9.93;5.50;;;5.00;99.90;;;4.77;73.15;101767.50;5070828;28;20201;-64
2023/02/14 01:41:43;;;;;;;8.77;5.30;;;5.00;99.90;;;4.77;73.63;101761.50;5075027;28;20213;-64
2023/02/14 01:44:55;;;;;;;9.73;5.73;;;4.90;99.90;;;4.74;73.86;101766.50;5066758;28;20186;-64
2023/02/14 01:47:25;;;;;;;8.90;5.40;;;5.00;99.90;;;4.71;73.69;101771.47;5070682;28;20206;-65
2023/02/14 01:49:59;;;;;;;6.73;5.47;;;4.90;99.90;;;4.70;73.81;101762.94;5074463;28;20181;-64
2023/02/14 01:52:34;;;;;;;8.23;5.63;;;4.90;99.90;;;4.70;73.66;101770.59;5078472;28;20206;-66
2023/02/14 01:55:08;;;;;;;9.17;5.90;;;4.90;99.90;;;4.71;73.99;101769.78;5080165;28;20229;-67
2023/02/14 01:57:40;;;;;;;7.50;5.87;;;4.90;99.90;;;4.72;73.82;101769.00;5078358;28;20202;-65
2023/02/14 02:02:58;;;;;;;9.30;5.53;;;4.90;99.90;;;4.70;74.49;101762.94;5072316;28;20252;-65
2023/02/14 02:05:28;;;;;;;7.93;5.57;;;4.90;99.90;;;4.69;74.28;101755.25;5073327;28;20193;-67
2023/02/14 02:08:00;;;;;;;8.27;5.77;;;4.90;99.90;;;4.68;74.45;101758.59;5076943;28;20193;-67
2023/02/14 02:10:29;;;;;;;8.60;5.63;;;4.80;99.90;;;4.68;74.93;101759.47;5079989;28;20185;-65
2023/02/14 02:13:06;;;;;;;10.03;5.70;;;4.90;99.90;;;4.68;75.04;101764.59;5066304;28;20224;-63
2023/02/14 02:15:46;;;;;;;10.60;5.50;;;4.90;99.90;;;4.67;74.56;101769.59;5076319;28;20182;-67
2023/02/14 02:18:26;;;;;;;9.07;5.87;;;4.80;99.90;;;4.66;74.68;101773.84;5069749;28;20197;-66
2023/02/14 02:21:51;;;;;;;11.37;6.10;;;4.80;99.90;;;4.63;74.96;101776.28;5078340;28;20212;-64
2023/02/14 02:24:36;;;;;;;9.67;6.07;;;4.80;99.90;;;4.59;74.54;101766.75;5077813;28;20232;-65
2023/02/14 02:28:01;;;;;;;10.13;5.70;;;4.80;99.90;;;4.59;74.60;101777.81;5068018;28;20213;-66
2023/02/14 02:31:10;;;;;;;9.17;6.10;;;4.80;99.90;;;4.57;75.19;101771.81;5044398;28;20227;-65
2023/02/14 02:34:35;;;;;;;8.47;6.17;;;4.80;99.90;;;4.57;75.38;101778.59;5075656;28;20239;-68
2023/02/14 02:37:22;;;;;;;10.17;6.23;;;4.80;99.90;;;4.53;74.73;101776.75;5019242;28;20199;-66
2023/02/14 02:40:07;;;;;;;12.40;6.53;;;4.70;99.90;;;4.50;75.10;101784.25;5032032;28;20214;-64
2023/02/14 02:42:47;;;;;;;11.57;6.60;;;4.70;99.90;;;4.49;75.23;101782.50;5064322;28;20209;-65
2023/02/14 02:45:28;;;;;;;11.50;7.43;;;4.70;99.90;;;4.45;75.26;101783.19;5077832;28;20243;-65
2023/02/14 02:48:05;;;;;;;12.03;7.03;;;4.70;99.90;;;4.44;75.38;101786.56;5075606;28;20186;-65
2023/02/14 02:53:39;;;;;;;9.57;6.03;;;4.60;99.90;;;4.43;75.90;101790.78;5074731;28;20185;-64
2023/02/14 02:59:16;;;;;;;10.50;6.77;;;4.60;99.90;;;4.35;75.38;101790.47;5082800;28;20194;-65
2023/02/14 03:01:51;;;;;;;9.13;6.60;;;4.60;99.90;;;4.31;75.30;101793.72;5083012;28;20645;-66
2023/02/14 03:09:57;;;;;;;10.20;6.07;;;4.50;99.90;;;4.16;76.02;101803.28;5078624;28;20202;-65
2023/02/14 03:13:22;;;;;;;11.23;6.27;;;4.40;99.90;;;4.13;75.87;101798.03;5077581;28;20205;-65
2023/02/14 03:16:21;;;;;;;7.20;6.20;;;4.40;99.90;;;4.10;76.71;101800.44;5078176;28;20299;-65
2023/02/14 03:19:26;;;;;;;10.47;6.63;;;4.30;99.90;;;4.10;76.69;101816.63;5064182;28;20202;-64
2023/02/14 03:21:59;;;;;;;8.37;6.03;;;4.40;99.90;;;4.10;76.46;101800.44;5068362;28;20668;-65
2023/02/14 03:24:44;;;;;;;9.57;6.27;;;4.30;99.90;;;4.11;76.40;101797.94;5072818;28;20205;-64
2023/02/14 03:27:21;;;;;;;12.63;6.93;;;4.30;99.90;;;4.08;75.85;101805.47;5077397;28;20189;-64
2023/02/14 03:29:59;;;;;;;10.03;6.97;;;4.30;99.90;;;4.10;76.95;101805.53;5072846;28;20255;-63
2023/02/14 03:32:36;;;;;;;11.97;6.97;;;4.30;99.90;;;4.10;76.21;101810.66;5076981;28;20205;-65
2023/02/14 03:35:14;;;;;;;10.53;7.23;;;4.30;99.90;;;4.08;76.24;101808.00;5078329;28;20255;-66
2023/02/14 03:37:49;;;;;;;9.27;6.80;;;4.30;99.90;;;4.07;76.61;101810.50;5075902;28;20333;-66
2023/02/14 03:40:26;;;;;;;10.57;6.87;;;4.30;99.90;;;4.07;76.88;101820.72;5068052;28;20182;-65
2023/02/14 03:43:01;;;;;;;11.10;6.57;;;4.30;99.90;;;4.06;77.00;101813.88;5077468;28;20174;-64
2023/02/14 03:45:37;;;;;;;12.23;6.70;;;4.30;99.90;;;4.03;76.76;101817.16;5073516;28;20291;-67
2023/02/14 03:48:11;;;;;;;10.27;6.87;;;4.30;99.90;;;4.05;76.35;101824.84;5075763;28;20193;-64
2023/02/14 03:50:42;;;;;;;14.80;6.97;;;4.30;99.90;;;4.05;76.95;101814.66;5069989;28;20182;-66
2023/02/14 03:53:13;;;;;;;9.47;6.57;;;4.20;99.90;;;4.04;76.89;101811.25;5075853;28;20197;-65
2023/02/14 03:55:48;;;;;;;13.67;6.50;;;4.20;99.90;;;4.01;77.12;101810.22;5074320;28;20186;-67
2023/02/14 03:58:25;;;;;;;10.27;6.90;;;4.20;99.90;;;4.04;76.81;101811.25;5076456;28;20189;-65
2023/02/14 04:01:00;;;;;;;10.23;6.93;;;4.20;99.90;;;4.04;76.90;101815.47;5080601;28;20898;-64
2023/02/14 04:03:31;;;;;;;11.00;6.70;;;4.20;99.90;;;4.01;77.13;101805.13;5071236;28;20197;-65
2023/02/14 04:06:01;;;;;;;13.10;6.97;;;4.20;99.90;;;4.01;77.10;101802.59;5066063;28;20182;-64
2023/02/14 04:08:30;;;;;;;10.27;6.83;;;4.20;99.90;;;3.97;77.32;101798.16;5076904;28;20188;-65
2023/02/14 04:11:03;;;;;;;9.97;6.67;;;4.20;99.90;;;3.92;77.01;101786.91;5076618;28;20229;-66
2023/02/14 04:13:34;;;;;;;12.27;6.10;;;4.20;99.90;;;3.91;77.67;101803.00;5076714;28;20190;-63
2023/02/14 04:16:03;;;;;;;13.13;6.47;;;4.10;99.90;;;3.88;76.92;101798.66;5076674;28;20210;-64
2023/02/14 04:21:32;;;;;;;13.03;7.50;;;4.10;99.90;;;3.87;77.38;101792.69;5024184;28;20207;-66
2023/02/14 04:24:01;;;;;;;13.27;6.97;;;4.10;99.90;;;3.85;76.93;101798.50;5002021;28;20236;-67
2023/02/14 04:26:30;;;;;;;11.37;6.50;;;4.10;99.90;;;3.84;77.66;101805.28;5028559;28;20226;-64
2023/02/14 04:28:59;;;;;;;12.17;6.57;;;4.10;99.90;;;3.83;77.57;101798.44;5069205;28;20228;-68
2023/02/14 04:31:28;;;;;;;9.23;6.80;;;4.10;99.90;;;3.83;77.99;101806.09;5067379;28;20210;-66
2023/02/14 04:33:57;;;;;;;15.07;7.40;;;4.10;99.90;;;3.81;77.70;101815.34;5069171;28;20242;-67
2023/02/14 04:36:25;;;;;;;9.77;7.40;;;4.10;99.90;;;3.82;78.04;101814.53;5066556;28;20205;-67
2023/02/14 04:38:53;;;;;;;10.97;6.60;;;4.10;99.90;;;3.82;77.83;101813.66;5069875;28;20229;-68
2023/02/14 04:41:22;;;;;;;10.00;7.23;;;4.00;99.90;;;3.83;78.40;101816.28;5068677;28;20210;-69
2023/02/14 04:43:50;;;;;;;10.80;7.47;;;4.10;99.90;;;3.83;78.48;101817.97;5069672;28;20230;-66
2023/02/14 04:46:20;;;;;;;11.63;7.33;;;4.10;99.90;;;3.86;77.68;101826.59;5068739;28;20186;-68
2023/02/14 04:48:48;;;;;;;13.20;7.83;;;4.10;99.90;;;3.87;77.59;101830.94;5067756;28;20300;-65
2023/02/14 04:51:17;;;;;;;12.20;7.23;;;4.10;99.90;;;3.91;78.25;101829.38;5071350;28;20209;-68
2023/02/14 04:53:45;;;;;;;11.03;7.40;;;4.10;99.90;;;3.92;78.34;101830.25;5067806;28;20198;-65
2023/02/14 04:56:14;;;;;;;14.93;7.30;;;4.10;99.90;;;3.91;77.98;101836.16;5075229;28;20181;-66
2023/02/14 04:58:42;;;;;;;14.37;7.97;;;4.10;99.90;;;3.92;78.00;101843.88;5076496;28;20241;-65
2023/02/14 05:01:11;;;;;;;16.67;7.90;;;4.10;99.90;;;3.88;78.17;101840.31;5075943;28;20312;-68
2023/02/14 05:03:41;;;;;;;10.87;6.93;;;4.10;99.90;;;3.91;77.89;101838.72;5066213;28;20213;-67
2023/02/14 05:06:09;;;;;;;13.20;7.53;;;4.10;99.90;;;3.91;78.38;101836.16;5075940;28;20182;-66
2023/02/14 05:08:38;;;;;;;11.60;7.50;;;4.10;99.90;;;3.90;78.15;101842.03;5074531;28;20186;-66
2023/02/14 05:11:06;;;;;;;11.57;7.97;;;4.10;99.90;;;3.90;77.94;101847.16;5077031;28;20197;-64
2023/02/14 05:13:35;;;;;;;11.37;7.47;;;4.10;99.90;;;3.90;77.67;101852.25;5071710;28;20194;-66
2023/02/14 05:16:03;;;;;;;11.47;7.07;;;4.10;99.90;;;3.92;78.20;101855.75;5075706;28;20198;-64
2023/02/14 05:18:32;;;;;;;8.90;6.80;;;4.10;99.90;;;3.92;77.66;101855.75;5075258;28;20196;-65
2023/02/14 05:21:02;;;;;;;11.13;7.27;;;4.10;99.90;;;3.92;77.76;101855.75;5074100;28;20182;-66
2023/02/14 05:23:30;;;;;;;13.47;7.67;;;4.10;99.90;;;3.87;77.75;101853.88;5074848;28;20182;-67
2023/02/14 05:25:59;;;;;;;12.43;8.40;;;4.10;99.90;;;3.85;77.95;101860.56;5074405;28;20210;-67
2023/02/14 05:28:27;;;;;;;9.53;7.27;;;4.10;99.90;;;3.84;77.89;101848.63;5070099;28;20213;-66
2023/02/14 05:30:57;;;;;;;11.83;7.50;;;4.10;99.90;;;3.84;78.28;101856.28;5069647;28;20210;-66
2023/02/14 05:33:27;;;;;;;13.10;7.73;;;4.10;99.90;;;3.83;78.14;101871.53;5068572;28;20205;-65
2023/02/14 05:35:55;;;;;;;11.03;7.70;;;4.00;99.90;;;3.81;78.35;101858.69;5075743;28;20186;-65
2023/02/14 05:38:25;;;;;;;14.67;7.60;;;4.10;99.90;;;3.78;78.05;101852.56;5074221;28;20280;-68
2023/02/14 05:40:53;;;;;;;15.50;7.87;;;4.00;99.90;;;3.77;78.30;101866.13;5071244;28;20193;-67
2023/02/14 05:43:21;;;;;;;13.53;7.87;;;4.00;99.90;;;3.75;78.21;101873.69;5071440;28;20206;-67
2023/02/14 05:45:50;;;;;;;14.13;7.87;;;4.00;99.90;;;3.75;78.49;101862.63;5067391;28;20239;-66
2023/02/14 05:48:18;;;;;;;16.73;8.47;;;4.00;99.90;;;3.75;78.99;101863.50;5069040;28;20243;-67
2023/02/14 05:50:47;;;;;;;16.43;8.03;;;4.00;99.90;;;3.77;78.58;101855.94;5068581;28;20240;-66
2023/02/14 05:53:15;;;;;;;11.37;7.57;;;4.00;99.90;;;3.79;78.52;101859.41;5063064;28;20185;-68
2023/02/14 05:55:46;;;;;;;11.73;7.63;;;4.00;99.90;;;3.81;79.01;101868.03;5056842;28;20206;-69
2023/02/14 05:58:14;;;;;;;13.10;8.03;;;4.00;99.90;;;3.81;78.37;101868.88;5054459;28;20279;-69
2023/02/14 06:00:43;;;;;;;13.97;7.50;;;4.00;99.90;;;3.81;78.41;101873.97;5061245;28;20209;-67
2023/02/14 06:03:11;;;;;;;13.03;7.90;;;4.00;99.90;;;3.81;78.37;101873.13;5059873;28;20202;-67
2023/02/14 06:05:40;;;;;;;12.73;7.77;;;4.00;99.90;;;3.82;79.08;101883.38;5057501;28;20256;-66
2023/02/14 06:08:08;;;;;;;10.10;6.63;;;4.00;99.90;;;3.80;78.31;101877.34;5071094;28;20268;-65
2023/02/14 06:10:37;;;;;;;14.93;7.83;;;4.00;99.90;;;3.78;78.23;101878.94;5073089;28;20220;-66
2023/02/14 06:13:07;;;;;;;13.30;7.93;;;4.00;99.90;;;3.77;78.41;101874.66;5073526;28;20186;-67
2023/02/14 06:15:37;;;;;;;11.90;7.53;;;4.00;99.90;;;3.76;78.51;101880.56;5072985;28;20293;-67
2023/02/14 06:18:06;;;;;;;15.70;7.83;;;4.00;99.90;;;3.75;78.87;101883.91;5074247;28;20193;-68
2023/02/14 06:20:35;;;;;;;11.23;7.73;;;4.00;99.90;;;3.76;79.01;101885.66;5074188;28;20220;-65
2023/02/14 06:23:04;;;;;;;11.93;8.07;;;4.00;99.90;;;3.77;78.50;101884.84;5070553;28;20461;-66
2023/02/14 06:25:32;;;;;;;11.40;6.90;;;4.00;99.90;;;3.78;78.78;101884.03;5075687;28;20232;-67
2023/02/14 06:28:01;;;;;;;11.30;8.13;;;4.00;99.90;;;3.82;79.09;101898.66;5074355;28;20240;-66
2023/02/14 06:30:31;;;;;;;12.83;8.00;;;4.00;99.90;;;3.82;78.39;101892.69;5071951;28;20190;-64
2023/02/14 06:33:02;;;;;;;13.93;7.37;;;4.00;99.90;;;3.84;78.39;101896.22;5072465;28;20231;-66
2023/02/14 06:35:30;;;;;;;13.50;8.20;;;4.00;99.90;;;3.84;78.67;101897.06;5075522;28;20186;-67
2023/02/14 06:37:59;;;;;;;13.67;7.93;;;4.10;99.90;;;3.81;78.97;101899.47;5060107;28;20206;-66
2023/02/14 06:40:27;;;;;;;12.07;7.70;;;4.00;99.90;;;3.80;79.21;101901.97;5053384;28;20206;-65
2023/02/14 06:42:56;;;;;;;10.90;7.50;;;4.00;99.90;;;3.80;78.04;101902.84;5054332;28;20214;-64
2023/02/14 06:45:24;;;;;;;13.67;8.17;;;4.00;99.90;;;3.78;78.09;101901.88;5059058;28;20234;-64
2023/02/14 06:47:54;;;;;;;10.17;7.63;;;4.00;99.90;;;3.79;78.37;101912.94;5049643;28;20209;-64
2023/02/14 06:50:22;;;;;;;10.03;7.03;;;4.00;99.90;;;3.79;78.99;101902.75;5056003;28;20221;-66
2023/02/14 06:52:51;;;;;;;11.77;8.00;;;4.00;99.90;;;3.77;79.07;101902.69;5060528;28;20201;-63
2023/02/14 06:55:19;;;;;;;13.43;8.70;;;4.00;99.90;;;3.73;78.96;101900.81;5058642;28;20202;-61
2023/02/14 06:57:48;;;;;;;9.73;7.40;;;4.00;99.90;;;3.75;79.01;101896.63;5056809;28;20212;-64
2023/02/14 07:00:17;;;;;;;12.07;7.80;;;4.00;99.90;;;3.76;78.83;101892.44;5059883;28;20202;-72
2023/02/14 07:02:46;;;;;;;14.07;8.60;;;4.00;99.90;;;3.79;78.63;101898.56;5064028;28;20210;-63
2023/02/14 07:05:17;;;;;;;11.80;8.17;;;4.00;99.90;;;3.84;79.15;101907.28;5050914;28;20233;-64
2023/02/14 07:07:46;;;;;;;11.40;8.13;;;4.10;99.90;;;3.86;78.55;101898.00;5057882;28;20205;-65
2023/02/14 07:10:15;;;;;;;15.50;8.80;;;4.10;99.90;;;3.90;78.76;101896.47;5053980;28;20869;-64
2023/02/14 07:12:44;;;;;;;11.90;8.17;;;4.10;99.90;;;3.93;78.59;101904.25;5053815;28;20212;-65
2023/02/14 07:15:14;;;;;;;14.63;8.37;;;4.20;99.90;;;3.97;78.10;101897.63;5060281;28;20202;-63
2023/02/14 07:17:43;;;;;;;9.97;7.00;;;4.20;99.90;;;3.97;77.99;101905.28;5052851;28;20220;-62
2023/02/14 07:20:14;;;;;;;13.30;8.00;;;4.20;99.90;;;3.95;77.88;101899.25;5049253;28;20655;-64
2023/02/14 07:22:44;;;;;;;11.40;8.17;;;4.20;99.90;;;3.97;77.67;101906.13;5062078;28;20233;-64
2023/02/14 07:25:13;;;;;;;9.70;6.27;;;4.20;99.90;;;3.98;78.26;101909.59;5050522;28;20229;-64
2023/02/14 07:27:41;;;;;;;14.27;7.27;;;4.20;99.90;;;3.97;78.33;101910.38;5056318;28;20225;-66
2023/02/14 07:30:12;;;;;;;10.73;7.90;;;4.20;99.90;;;3.97;78.15;101918.88;5054510;28;20202;-64
2023/02/14 07:32:41;;;;;;;14.23;8.97;;;4.20;99.90;;;3.99;78.42;101914.75;5056480;28;20241;-65
2023/02/14 07:35:11;;;;;;;16.10;8.37;;;4.20;99.90;;;4.01;78.00;101917.34;5058057;28;20236;-65
2023/02/14 07:37:43;;;;;;;11.93;8.10;;;4.30;99.90;;;4.02;78.19;101921.69;5056497;28;20305;-64
2023/02/14 07:40:13;;;;;;;13.37;8.27;;;4.30;99.90;;;4.04;78.03;101927.69;5055471;28;20538;-66
2023/02/14 07:42:43;;;;;;;13.50;8.07;;;4.30;99.90;;;4.05;77.48;101921.78;5058099;28;20600;-66
2023/02/14 07:45:12;;;;;;;12.77;8.10;;;4.30;99.90;;;4.04;77.65;101927.69;5057050;28;20202;-64
2023/02/14 07:47:49;;;;;;;10.97;7.37;;;4.30;99.90;;;4.03;78.15;101919.19;5061555;28;20224;-65
2023/02/14 07:50:19;;;;;;;13.40;7.80;;;4.30;99.90;;;4.03;78.13;101926.84;5055115;28;20201;-66
2023/02/14 07:52:49;;;;;;;13.03;8.00;;;4.30;99.90;;;4.07;77.53;101930.41;5048448;28;20237;-65
2023/02/14 07:55:18;;;;;;;11.60;8.67;;;4.30;99.90;;;4.10;77.94;101935.63;5052371;28;20197;-64
2023/02/14 07:57:48;;;;;;;15.53;8.43;;;4.40;99.90;;;4.12;78.36;101941.66;5059674;28;20209;-64
2023/02/14 08:00:18;;;;;;;15.40;9.00;;;4.40;99.90;;;4.15;77.70;101938.38;5056796;28;20202;-65
2023/02/14 08:02:46;;;;;;;12.43;8.40;;;4.40;99.90;;;4.21;77.91;101947.19;5055316;28;20228;-64
2023/02/14 08:05:15;;;;;;;14.63;8.63;;;4.40;99.90;;;4.22;77.20;101948.94;5045691;28;20210;-64
2023/02/14 08:07:43;;;;;;;13.77;8.77;;;4.50;99.90;;;4.24;77.72;101954.13;5053125;28;20289;-65
2023/02/14 08:10:14;;;;;;;13.30;8.53;;;4.50;99.90;;;4.26;77.78;101962.72;5054941;28;20217;-63
2023/02/14 08:13:01;;;;;;;12.27;7.97;;;4.50;99.90;;;4.27;77.05;101962.78;5050359;28;20198;-65
2023/02/14 08:18:19;;;;;;;16.37;9.60;;;4.50;99.90;;;4.30;77.70;101974.78;5066347;28;20698;-63
2023/02/14 08:20:49;;;;;;;15.77;8.87;;;4.50;99.90;;;4.28;77.34;101971.31;5060834;28;20202;-66
2023/02/14 08:23:19;;;;;;;17.63;9.50;;;4.50;99.90;;;4.28;77.55;101974.75;5057520;28;20721;-66
2023/02/14 08:25:51;;;;;;;12.27;9.20;;;4.60;99.90;;;4.33;77.43;101972.38;5059519;28;20221;-66
2023/02/14 08:28:20;;;;;;;14.07;8.77;;;4.60;99.90;;;4.34;77.40;101977.56;5058338;28;20226;-66
2023/02/14 08:30:50;;;;;;;12.80;8.17;;;4.60;99.90;;;4.36;77.70;101973.41;5058750;28;20263;-66
2023/02/14 08:33:18;;;;;;;13.40;8.50;;;4.60;99.90;;;4.39;77.02;101974.34;5049471;28;20325;-65
2023/02/14 08:35:47;;;;;;;12.70;7.70;;;4.60;99.90;;;4.41;76.82;101971.03;5056382;28;20194;-66
2023/02/14 08:38:16;;;;;;;14.00;8.83;;;4.60;99.90;;;4.43;77.12;101969.44;5051903;28;20341;-64
2023/02/14 08:40:45;;;;;;;12.70;7.97;;;4.70;99.90;;;4.42;77.06;101960.03;5047395;28;20716;-64
2023/02/14 08:43:14;;;;;;;11.77;7.67;;;4.70;99.90;;;4.43;76.23;101955.81;5037441;28;20666;-70
2023/02/14 08:45:43;;;;;;;13.40;9.20;;;4.70;99.90;;;4.44;76.23;101965.22;5044518;28;20678;-63
2023/02/14 08:48:13;;;;;;;14.63;9.13;;;4.70;99.90;;;4.49;76.49;101979.03;5043756;28;20209;-64
2023/02/14 08:50:41;;;;;;;12.60;8.60;;;4.80;99.90;;;4.51;76.24;101973.19;5044635;28;20206;-65
2023/02/14 08:53:13;;;;;;;12.30;8.67;;;4.80;99.90;;;4.56;76.54;101966.59;5043728;28;20218;-65
2023/02/14 08:55:41;;;;;;;17.37;8.77;;;4.80;99.90;;;4.60;76.75;101970.16;5039420;28;20197;-63
2023/02/14 08:58:10;;;;;;;17.47;9.00;;;4.90;99.90;;;4.63;76.27;101983.06;5052191;28;20206;-65
2023/02/14 09:00:40;;;;;;;15.63;9.00;;;4.90;99.90;;;4.61;76.40;101979.59;5044432;28;20268;-64
2023/02/14 09:03:09;;;;;;;17.63;9.60;;;4.90;99.90;;;4.68;76.38;101983.28;5035867;28;20600;-66
2023/02/14 09:05:37;;;;;;;14.07;8.73;;;4.90;99.90;;;4.73;76.05;101979.25;5039397;28;20205;-65
2023/02/14 09:08:06;;;;;;;11.23;8.23;;;5.00;99.90;;;4.77;76.19;101983.69;5033965;28;20209;-62
2023/02/14 09:10:35;;;;;;;13.87;8.20;;;5.00;99.90;;;4.78;75.65;101978.63;5039478;28;20295;-65
2023/02/14 09:13:03;;;;;;;12.53;8.83;;;5.00;99.90;;;4.79;75.84;101982.94;5042353;28;20221;-65
2023/02/14 09:15:32;;;;;;;15.43;9.37;;;5.00;99.90;;;4.84;75.70;101978.03;5045978;28;20251;-64
2023/02/14 09:18:01;;;;;;;13.07;7.83;;;5.10;99.90;;;4.89;75.66;101973.09;5042333;28;20202;-64
2023/02/14 09:20:30;;;;;;;14.67;9.40;;;5.10;99.90;;;4.94;75.04;101976.75;5043136;28;20198;-62
2023/02/14 09:22:58;;;;;;;21.37;9.60;;;5.20;99.90;;;4.95;74.98;101979.34;5040192;28;20221;-64
2023/02/14 09:25:27;;;;;;;14.60;8.83;;;5.20;99.90;;;4.95;74.79;101978.50;5040622;28;20199;-65
2023/02/14 09:27:55;;;;;;;17.40;9.30;;;5.20;99.90;;;4.93;74.70;101975.84;5043998;28;20264;-63
2023/02/14 09:30:23;;;;;;;12.77;8.20;;;5.20;99.90;;;4.95;74.54;101973.38;5034681;28;21242;-65
2023/02/14 09:32:53;;;;;;;12.57;8.67;;;5.20;99.90;;;4.94;74.66;101984.41;5036928;28;20222;-66
2023/02/14 09:35:23;;;;;;;13.37;9.03;;;5.20;99.90;;;4.96;74.51;101985.34;5040905;28;20279;-63
2023/02/14 09:37:50;;;;;;;13.70;8.80;;;5.20;99.90;;;4.99;74.71;101975.25;5042012;28;20202;-66
2023/02/14 09:40:20;;;;;;;11.73;8.57;;;5.20;99.90;;;5.03;74.33;101980.53;5044522;28;20207;-65
2023/02/14 09:43:03;;;;;;;15.73;9.17;;;5.30;99.90;;;5.08;74.33;101978.19;5047661;28;20651;-67
2023/02/14 09:45:33;;;;;;;16.43;9.47;;;5.40;99.90;;;5.14;74.58;101968.22;5037127;28;20636;-64
2023/02/14 09:48:08;;;;;;;11.93;8.53;;;5.40;99.90;;;5.15;74.21;101966.53;5042815;28;20249;-63
2023/02/14 09:50:45;;;;;;;16.70;9.00;;;5.50;99.90;;;5.20;73.86;101988.94;5042928;28;20205;-64
2023/02/14 09:53:23;;;;;;;10.87;8.07;;;5.40;99.90;;;5.16;73.67;101992.16;5054155;28;20208;-66
2023/02/14 09:56:01;;;;;;;13.60;8.60;;;5.40;99.90;;;5.15;73.77;101987.84;5051833;28;20232;-65
2023/02/14 09:58:36;;;;;;;12.43;7.87;;;5.40;99.90;;;5.15;73.69;101987.84;5042867;28;20210;-64
2023/02/14 10:01:13;;;;;;;14.27;8.90;;;5.40;99.90;;;5.16;73.88;101997.28;5045547;28;20206;-65
2023/02/14 10:04:10;;;;;;;12.43;9.17;;;5.40;99.90;;;5.09;73.42;101987.63;5050052;28;20245;-65
2023/02/14 10:06:52;;;;;;;16.50;8.27;;;5.40;99.90;;;5.14;73.33;101996.31;5054182;28;20545;-64
2023/02/14 10:09:51;;;;;;;13.57;8.83;;;5.50;99.90;;;5.15;73.42;101987.84;5041727;28;20268;-65
2023/02/14 10:12:26;;;;;;;15.27;9.63;;;5.50;99.90;;;5.18;73.23;101994.78;5051823;28;20210;-66
2023/02/14 10:14:59;;;;;;;15.97;10.00;;;5.50;99.90;;;5.18;73.12;101990.53;5051859;28;20233;-65
2023/02/14 10:17:38;;;;;;;13.53;9.13;;;5.50;99.90;;;5.18;73.35;101985.41;5047258;28;20190;-67
2023/02/14 10:20:20;;;;;;;15.03;8.87;;;5.50;99.90;;;5.13;73.37;101980.94;5043280;28;20765;-65
2023/02/14 10:23:02;;;;;;;17.47;8.70;;;5.40;99.90;;;5.12;72.82;101982.63;5049004;28;20208;-66
2023/02/14 10:25:40;;;;;;;14.00;8.47;;;5.40;99.90;;;5.12;73.08;101987.75;5049182;28;20280;-65
2023/02/14 10:28:14;;;;;;;16.93;9.57;;;5.40;99.90;;;5.14;72.92;101977.56;5043556;28;20234;-67
2023/02/14 10:31:00;;;;;;;15.50;9.40;;;5.40;99.90;;;5.17;73.17;101983.69;5048510;28;20194;-65
2023/02/14 10:33:33;;;;;;;14.17;8.50;;;5.40;99.90;;;5.20;72.87;101983.81;5055148;28;20286;-65
2023/02/14 10:36:13;;;;;;;16.83;9.47;;;5.50;99.90;;;5.22;73.03;101987.28;5043975;28;20234;-66
2023/02/14 10:38:50;;;;;;;12.60;8.77;;;5.50;99.90;;;5.24;72.90;101987.38;5047193;28;20689;-67
2023/02/14 10:41:33;;;;;;;13.03;8.87;;;5.50;99.90;;;5.30;73.01;101990.16;5051287;28;20209;-69
2023/02/14 10:44:22;;;;;;;15.53;9.30;;;5.60;99.90;;;5.35;72.43;101998.91;5050711;28;20297;-66
2023/02/14 10:47:01;;;;;;;15.13;8.77;;;5.60;99.90;;;5.37;71.99;101992.16;5052981;28;20586;-66
2023/02/14 10:49:47;;;;;;;15.90;9.00;;;5.60;99.90;;;5.37;72.29;101981.06;5041890;28;20233;-64
2023/02/14 10:52:25;;;;;;;18.00;9.87;;;5.60;99.90;;;5.41;72.45;101978.69;5047757;28;20251;-67
2023/02/14 10:54:58;;;;;;;13.13;8.53;;;5.70;99.90;;;5.48;72.17;101979.81;5044324;28;20707;-67
2023/02/14 10:57:33;;;;;;;16.17;9.10;;;5.70;99.90;;;5.48;72.01;101979.81;5052874;28;20206;-68
2023/02/14 11:00:05;;;;;;;18.07;9.73;;;5.70;99.90;;;5.49;72.31;101987.56;5053647;28;20208;-68
2023/02/14 11:02:40;;;;;;;15.97;9.33;;;5.70;99.90;;;5.51;72.22;101982.50;5053710;28;20640;-68
2023/02/14 11:05:23;;;;;;;16.57;9.30;;;5.80;99.90;;;5.55;72.09;101981.81;5052231;28;20205;-65
2023/02/14 11:07:51;;;;;;;14.33;9.47;;;5.70;99.90;;;5.59;72.20;101988.78;5049056;28;20218;-65